sensor_id;sensor_type;location;lat;lon;timestamp;pressure;altitude;pressure_sealevel;temperature;humidity
24752;BME280;27246;52.376;4.628;2023-01-26T00:03:30;102373.56;;;1.00;100.00
24752;BME280;27246;52.376;4.628;2023-01-26T00:08:42;102372.53;;;1.03;100.00
24752;BME280;27246;52.376;4.628;2023-01-26T00:13:43;102360.03;;;1.16;100.00
24752;BME280;27246;52.376;4.628;2023-01-26T00:18:45;102354.75;;;1.13;100.00
24752;BME280;27246;52.376;4.628;2023-01-26T00:23:48;102351.34;;;1.26;100.00
24752;BME280;27246;52.376;4.628;2023-01-26T00:28:51;102350.75;;;1.20;100.00
24752;BME280;27246;52.376;4.628;2023-01-26T00:33:54;102346.69;;;1.12;100.00
24752;BME280;27246;52.376;4.628;2023-01-26T00:38:56;102352.94;;;0.98;100.00
24752;BME280;27246;52.376;4.628;2023-01-26T00:43:58;102339.00;;;1.20;100.00
24752;BME280;27246;52.376;4.628;2023-01-26T00:49:00;102339.63;;;1.25;100.00
24752;BME280;27246;52.376;4.628;2023-01-26T00:54:02;102340.47;;;1.10;100.00
24752;BME280;27246;52.376;4.628;2023-01-26T00:59:03;102328.41;;;1.15;100.00
24752;BME280;27246;52.376;4.628;2023-01-26T01:04:06;102331.47;;;1.09;100.00
24752;BME280;27246;52.376;4.628;2023-01-26T01:09:08;102325.44;;;1.20;100.00
24752;BME280;27246;52.376;4.628;2023-01-26T01:14:11;102335.25;;;1.23;100.00
24752;BME280;27246;52.376;4.628;2023-01-26T01:19:15;102323.25;;;1.27;100.00
24752;BME280;27246;52.376;4.628;2023-01-26T01:24:17;102327.97;;;1.23;100.00
24752;BME280;27246;52.376;4.628;2023-01-26T01:29:18;102342.00;;;1.31;100.00
24752;BME280;27246;52.376;4.628;2023-01-26T01:34:20;102338.50;;;1.29;100.00
24752;BME280;27246;52.376;4.628;2023-01-26T01:39:22;102348.13;;;1.35;100.00
24752;BME280;27246;52.376;4.628;2023-01-26T01:44:24;102328.31;;;1.49;100.00
24752;BME280;27246;52.376;4.628;2023-01-26T01:49:36;102337.84;;;1.56;100.00
24752;BME280;27246;52.376;4.628;2023-01-26T01:54:46;102344.63;;;1.49;100.00
24752;BME280;27246;52.376;4.628;2023-01-26T02:00:00;102351.97;;;1.47;100.00
24752;BME280;27246;52.376;4.628;2023-01-26T02:05:26;102345.75;;;1.45;100.00
24752;BME280;27246;52.376;4.628;2023-01-26T02:10:32;102347.16;;;1.52;100.00
24752;BME280;27246;52.376;4.628;2023-01-26T02:15:35;102353.19;;;1.57;100.00
24752;BME280;27246;52.376;4.628;2023-01-26T02:26:05;102331.91;;;1.65;100.00
24752;BME280;27246;52.376;4.628;2023-01-26T02:31:08;102327.78;;;1.58;100.00
24752;BME280;27246;52.376;4.628;2023-01-26T02:36:26;102344.13;;;1.72;100.00
24752;BME280;27246;52.376;4.628;2023-01-26T02:41:29;102337.91;;;1.70;100.00
24752;BME280;27246;52.376;4.628;2023-01-26T02:46:51;102359.06;;;1.65;100.00
24752;BME280;27246;52.376;4.628;2023-01-26T02:51:54;102346.06;;;1.70;100.00
24752;BME280;27246;52.376;4.628;2023-01-26T02:56:55;102345.94;;;1.88;100.00
24752;BME280;27246;52.376;4.628;2023-01-26T03:01:57;102355.63;;;2.08;100.00
24752;BME280;27246;52.376;4.628;2023-01-26T03:06:59;102351.94;;;2.09;100.00
24752;BME280;27246;52.376;4.628;2023-01-26T03:12:02;102358.69;;;2.17;99.33
24752;BME280;27246;52.376;4.628;2023-01-26T03:17:03;102363.03;;;2.20;99.66
24752;BME280;27246;52.376;4.628;2023-01-26T03:22:05;102363.84;;;2.36;99.66
24752;BME280;27246;52.376;4.628;2023-01-26T03:27:26;102360.66;;;2.44;99.36
24752;BME280;27246;52.376;4.628;2023-01-26T03:32:30;102355.81;;;2.49;98.51
24752;BME280;27246;52.376;4.628;2023-01-26T03:37:33;102344.47;;;2.57;99.48
24752;BME280;27246;52.376;4.628;2023-01-26T03:42:45;102356.63;;;2.66;99.07
24752;BME280;27246;52.376;4.628;2023-01-26T03:48:10;102349.91;;;2.71;98.92
24752;BME280;27246;52.376;4.628;2023-01-26T03:53:32;102343.81;;;2.68;98.91
24752;BME280;27246;52.376;4.628;2023-01-26T03:58:55;102347.19;;;2.71;99.29
24752;BME280;27246;52.376;4.628;2023-01-26T04:04:00;102336.41;;;2.84;99.47
24752;BME280;27246;52.376;4.628;2023-01-26T04:09:21;102336.59;;;2.95;99.49
24752;BME280;27246;52.376;4.628;2023-01-26T04:14:23;102332.41;;;3.04;100.00
24752;BME280;27246;52.376;4.628;2023-01-26T04:19:55;102333.44;;;3.16;100.00
24752;BME280;27246;52.376;4.628;2023-01-26T04:25:19;102336.66;;;3.23;100.00
24752;BME280;27246;52.376;4.628;2023-01-26T04:30:21;102340.22;;;3.37;100.00
24752;BME280;27246;52.376;4.628;2023-01-26T04:35:24;102346.63;;;3.51;100.00
24752;BME280;27246;52.376;4.628;2023-01-26T04:40:26;102344.16;;;3.60;100.00
24752;BME280;27246;52.376;4.628;2023-01-26T04:45:28;102332.53;;;3.71;100.00
24752;BME280;27246;52.376;4.628;2023-01-26T04:50:30;102336.91;;;3.87;100.00
24752;BME280;27246;52.376;4.628;2023-01-26T04:55:32;102339.47;;;3.90;100.00
24752;BME280;27246;52.376;4.628;2023-01-26T05:00:34;102334.03;;;4.03;100.00
24752;BME280;27246;52.376;4.628;2023-01-26T05:05:37;102334.16;;;4.14;100.00
24752;BME280;27246;52.376;4.628;2023-01-26T05:10:39;102329.38;;;4.17;100.00
24752;BME280;27246;52.376;4.628;2023-01-26T05:16:10;102333.75;;;4.20;100.00
24752;BME280;27246;52.376;4.628;2023-01-26T05:21:40;102337.47;;;4.32;100.00
24752;BME280;27246;52.376;4.628;2023-01-26T05:26:42;102334.50;;;4.35;100.00
24752;BME280;27246;52.376;4.628;2023-01-26T05:31:49;102349.50;;;4.42;100.00
24752;BME280;27246;52.376;4.628;2023-01-26T05:36:51;102340.34;;;4.56;100.00
24752;BME280;27246;52.376;4.628;2023-01-26T05:41:53;102355.03;;;4.53;100.00
24752;BME280;27246;52.376;4.628;2023-01-26T05:47:16;102355.28;;;4.63;100.00
24752;BME280;27246;52.376;4.628;2023-01-26T05:52:21;102357.44;;;4.84;100.00
24752;BME280;27246;52.376;4.628;2023-01-26T05:57:24;102353.91;;;4.96;100.00
24752;BME280;27246;52.376;4.628;2023-01-26T06:02:30;102370.03;;;4.99;100.00
24752;BME280;27246;52.376;4.628;2023-01-26T06:07:32;102370.44;;;4.93;100.00
24752;BME280;27246;52.376;4.628;2023-01-26T06:12:42;102368.31;;;4.98;100.00
24752;BME280;27246;52.376;4.628;2023-01-26T06:18:10;102384.00;;;5.20;100.00
24752;BME280;27246;52.376;4.628;2023-01-26T06:23:15;102391.09;;;5.10;100.00
24752;BME280;27246;52.376;4.628;2023-01-26T06:28:19;102395.34;;;5.14;100.00
24752;BME280;27246;52.376;4.628;2023-01-26T06:33:20;102391.09;;;5.10;100.00
24752;BME280;27246;52.376;4.628;2023-01-26T06:38:24;102407.81;;;5.18;100.00
24752;BME280;27246;52.376;4.628;2023-01-26T06:43:30;102404.13;;;5.06;100.00
24752;BME280;27246;52.376;4.628;2023-01-26T06:48:33;102413.97;;;5.09;100.00
24752;BME280;27246;52.376;4.628;2023-01-26T06:53:37;102418.22;;;5.00;100.00
24752;BME280;27246;52.376;4.628;2023-01-26T06:58:59;102431.63;;;4.90;100.00
24752;BME280;27246;52.376;4.628;2023-01-26T07:04:13;102422.88;;;4.85;100.00
24752;BME280;27246;52.376;4.628;2023-01-26T07:09:15;102424.47;;;5.02;100.00
24752;BME280;27246;52.376;4.628;2023-01-26T07:14:17;102427.41;;;4.99;100.00
24752;BME280;27246;52.376;4.628;2023-01-26T07:19:19;102427.50;;;4.97;100.00
24752;BME280;27246;52.376;4.628;2023-01-26T07:24:21;102432.97;;;5.10;100.00
24752;BME280;27246;52.376;4.628;2023-01-26T07:29:23;102446.44;;;4.73;100.00
24752;BME280;27246;52.376;4.628;2023-01-26T07:34:24;102446.44;;;4.60;100.00
24752;BME280;27246;52.376;4.628;2023-01-26T07:39:26;102455.81;;;4.56;100.00
24752;BME280;27246;52.376;4.628;2023-01-26T07:44:28;102464.09;;;4.55;100.00
24752;BME280;27246;52.376;4.628;2023-01-26T07:49:30;102466.38;;;4.48;100.00
24752;BME280;27246;52.376;4.628;2023-01-26T07:54:32;102468.88;;;4.51;100.00
24752;BME280;27246;52.376;4.628;2023-01-26T07:59:34;102481.00;;;4.47;100.00
24752;BME280;27246;52.376;4.628;2023-01-26T08:04:35;102481.34;;;4.55;100.00
24752;BME280;27246;52.376;4.628;2023-01-26T08:09:37;102482.25;;;4.56;100.00
24752;BME280;27246;52.376;4.628;2023-01-26T08:14:38;102491.88;;;4.61;100.00
24752;BME280;27246;52.376;4.628;2023-01-26T08:19:47;102488.16;;;4.63;100.00
24752;BME280;27246;52.376;4.628;2023-01-26T08:24:51;102491.97;;;4.60;100.00
24752;BME280;27246;52.376;4.628;2023-01-26T08:29:53;102505.09;;;4.68;100.00
24752;BME280;27246;52.376;4.628;2023-01-26T08:34:54;102489.25;;;4.73;100.00
24752;BME280;27246;52.376;4.628;2023-01-26T08:39:56;102501.03;;;4.73;100.00
24752;BME280;27246;52.376;4.628;2023-01-26T08:44:58;102509.13;;;4.75;100.00
24752;BME280;27246;52.376;4.628;2023-01-26T08:49:59;102505.22;;;4.79;100.00
24752;BME280;27246;52.376;4.628;2023-01-26T08:55:02;102515.94;;;4.82;100.00
24752;BME280;27246;52.376;4.628;2023-01-26T09:00:05;102525.97;;;4.81;100.00
24752;BME280;27246;52.376;4.628;2023-01-26T09:05:08;102526.63;;;4.85;100.00
24752;BME280;27246;52.376;4.628;2023-01-26T09:10:10;102532.09;;;4.85;100.00
24752;BME280;27246;52.376;4.628;2023-01-26T09:15:12;102536.72;;;4.97;100.00
24752;BME280;27246;52.376;4.628;2023-01-26T09:20:14;102534.56;;;5.15;100.00
24752;BME280;27246;52.376;4.628;2023-01-26T09:25:16;102529.00;;;5.17;100.00
24752;BME280;27246;52.376;4.628;2023-01-26T09:30:18;102530.00;;;5.41;100.00
24752;BME280;27246;52.376;4.628;2023-01-26T09:35:20;102532.38;;;5.46;100.00
24752;BME280;27246;52.376;4.628;2023-01-26T09:45:36;102541.34;;;5.74;99.31
24752;BME280;27246;52.376;4.628;2023-01-26T09:50:47;102533.44;;;5.82;98.34
24752;BME280;27246;52.376;4.628;2023-01-26T09:55:50;102544.88;;;6.13;96.61
24752;BME280;27246;52.376;4.628;2023-01-26T10:00:57;102548.09;;;5.94;96.71
24752;BME280;27246;52.376;4.628;2023-01-26T10:06:19;102537.91;;;5.96;96.76
24752;BME280;27246;52.376;4.628;2023-01-26T10:11:42;102544.19;;;6.22;94.61
24752;BME280;27246;52.376;4.628;2023-01-26T10:16:48;102553.69;;;6.29;94.03
24752;BME280;27246;52.376;4.628;2023-01-26T10:21:51;102552.19;;;6.25;94.57
24752;BME280;27246;52.376;4.628;2023-01-26T10:26:56;102549.44;;;6.49;94.62
24752;BME280;27246;52.376;4.628;2023-01-26T10:31:58;102561.47;;;6.59;93.75
24752;BME280;27246;52.376;4.628;2023-01-26T10:37:29;102567.16;;;6.56;94.21
24752;BME280;27246;52.376;4.628;2023-01-26T10:42:32;102562.25;;;6.73;93.04
24752;BME280;27246;52.376;4.628;2023-01-26T10:47:35;102572.56;;;6.93;90.55
24752;BME280;27246;52.376;4.628;2023-01-26T10:52:36;102553.00;;;7.22;89.11
24752;BME280;27246;52.376;4.628;2023-01-26T10:57:40;102556.88;;;6.95;90.81
24752;BME280;27246;52.376;4.628;2023-01-26T11:02:50;102555.44;;;7.14;90.64
24752;BME280;27246;52.376;4.628;2023-01-26T11:07:55;102552.91;;;6.99;90.38
24752;BME280;27246;52.376;4.628;2023-01-26T11:13:16;102562.34;;;6.95;90.64
24752;BME280;27246;52.376;4.628;2023-01-26T11:18:53;102568.31;;;6.89;90.96
24752;BME280;27246;52.376;4.628;2023-01-26T11:24:23;102557.34;;;6.89;90.71
24752;BME280;27246;52.376;4.628;2023-01-26T11:29:57;102558.38;;;6.99;91.02
24752;BME280;27246;52.376;4.628;2023-01-26T11:35:21;102555.25;;;7.39;89.75
24752;BME280;27246;52.376;4.628;2023-01-26T11:45:45;102544.09;;;7.54;88.55
24752;BME280;27246;52.376;4.628;2023-01-26T11:51:11;102549.72;;;7.75;87.04
24752;BME280;27246;52.376;4.628;2023-01-26T12:01:39;102547.13;;;7.38;86.90
24752;BME280;27246;52.376;4.628;2023-01-26T12:06:44;102533.31;;;7.39;87.09
24752;BME280;27246;52.376;4.628;2023-01-26T12:11:54;102531.69;;;7.37;87.91
24752;BME280;27246;52.376;4.628;2023-01-26T12:22:31;102515.63;;;7.32;89.15
24752;BME280;27246;52.376;4.628;2023-01-26T12:27:40;102504.19;;;7.50;88.62
24752;BME280;27246;52.376;4.628;2023-01-26T12:32:42;102501.97;;;7.55;86.72
24752;BME280;27246;52.376;4.628;2023-01-26T12:37:50;102490.38;;;7.63;85.95
24752;BME280;27246;52.376;4.628;2023-01-26T12:44:02;102488.03;;;8.13;83.08
24752;BME280;27246;52.376;4.628;2023-01-26T12:48:51;102489.38;;;7.64;84.87
24752;BME280;27246;52.376;4.628;2023-01-26T12:54:14;102475.59;;;8.09;82.84
24752;BME280;27246;52.376;4.628;2023-01-26T12:59:30;102477.75;;;7.82;83.00
24752;BME280;27246;52.376;4.628;2023-01-26T13:04:48;102479.06;;;8.54;80.31
24752;BME280;27246;52.376;4.628;2023-01-26T13:15:17;102473.25;;;8.36;79.28
24752;BME280;27246;52.376;4.628;2023-01-26T13:20:44;102475.59;;;8.41;78.40
24752;BME280;27246;52.376;4.628;2023-01-26T13:25:49;102468.50;;;8.06;81.03
24752;BME280;27246;52.376;4.628;2023-01-26T13:31:12;102471.50;;;8.03;82.81
24752;BME280;27246;52.376;4.628;2023-01-26T13:36:16;102486.53;;;8.20;83.26
24752;BME280;27246;52.376;4.628;2023-01-26T13:41:19;102482.31;;;8.27;83.64
24752;BME280;27246;52.376;4.628;2023-01-26T13:46:27;102480.94;;;8.21;83.35
24752;BME280;27246;52.376;4.628;2023-01-26T13:51:33;102478.56;;;8.49;80.72
24752;BME280;27246;52.376;4.628;2023-01-26T13:56:40;102476.53;;;7.87;83.61
24752;BME280;27246;52.376;4.628;2023-01-26T14:01:51;102474.59;;;7.98;83.63
24752;BME280;27246;52.376;4.628;2023-01-26T14:07:11;102461.75;;;8.10;82.72
24752;BME280;27246;52.376;4.628;2023-01-26T14:12:21;102467.09;;;8.55;80.90
24752;BME280;27246;52.376;4.628;2023-01-26T14:17:27;102469.00;;;8.11;81.70
24752;BME280;27246;52.376;4.628;2023-01-26T14:22:30;102465.25;;;8.45;80.71
24752;BME280;27246;52.376;4.628;2023-01-26T14:27:40;102474.53;;;8.32;79.38
24752;BME280;27246;52.376;4.628;2023-01-26T14:32:42;102477.72;;;8.49;77.14
24752;BME280;27246;52.376;4.628;2023-01-26T14:37:49;102487.47;;;8.09;77.32
24752;BME280;27246;52.376;4.628;2023-01-26T14:43:04;102474.06;;;8.59;78.51
24752;BME280;27246;52.376;4.628;2023-01-26T14:48:07;102486.53;;;8.31;76.76
24752;BME280;27246;52.376;4.628;2023-01-26T14:53:19;102497.31;;;8.12;76.02
24752;BME280;27246;52.376;4.628;2023-01-26T14:58:28;102509.94;;;8.03;78.53
24752;BME280;27246;52.376;4.628;2023-01-26T15:03:33;102506.19;;;7.93;77.54
24752;BME280;27246;52.376;4.628;2023-01-26T15:08:38;102512.84;;;8.34;76.32
24752;BME280;27246;52.376;4.628;2023-01-26T15:13:40;102509.75;;;9.34;73.90
24752;BME280;27246;52.376;4.628;2023-01-26T15:18:43;102502.81;;;8.97;70.58
24752;BME280;27246;52.376;4.628;2023-01-26T15:23:49;102516.44;;;7.91;72.24
24752;BME280;27246;52.376;4.628;2023-01-26T15:28:56;102520.72;;;8.27;74.00
24752;BME280;27246;52.376;4.628;2023-01-26T15:33:59;102515.53;;;8.45;73.45
24752;BME280;27246;52.376;4.628;2023-01-26T15:39:15;102523.13;;;8.85;71.72
24752;BME280;27246;52.376;4.628;2023-01-26T15:44:18;102524.03;;;8.53;72.92
24752;BME280;27246;52.376;4.628;2023-01-26T15:49:20;102517.28;;;8.57;72.79
24752;BME280;27246;52.376;4.628;2023-01-26T15:54:23;102540.44;;;8.65;73.41
24752;BME280;27246;52.376;4.628;2023-01-26T15:59:25;102540.44;;;8.65;72.70
24752;BME280;27246;52.376;4.628;2023-01-26T16:04:27;102539.63;;;8.85;75.66
24752;BME280;27246;52.376;4.628;2023-01-26T16:09:28;102530.34;;;8.21;75.64
24752;BME280;27246;52.376;4.628;2023-01-26T16:14:30;102530.88;;;8.04;76.99
24752;BME280;27246;52.376;4.628;2023-01-26T16:19:32;102533.88;;;7.78;77.79
24752;BME280;27246;52.376;4.628;2023-01-26T16:24:36;102537.59;;;7.66;78.17
24752;BME280;27246;52.376;4.628;2023-01-26T16:29:38;102532.88;;;7.79;78.30
24752;BME280;27246;52.376;4.628;2023-01-26T16:34:41;102532.13;;;8.00;78.47
24752;BME280;27246;52.376;4.628;2023-01-26T16:39:42;102535.03;;;9.07;75.87
24752;BME280;27246;52.376;4.628;2023-01-26T16:44:44;102534.34;;;8.17;73.86
24752;BME280;27246;52.376;4.628;2023-01-26T16:49:46;102538.84;;;7.96;74.05
24752;BME280;27246;52.376;4.628;2023-01-26T16:54:48;102525.22;;;8.28;74.61
24752;BME280;27246;52.376;4.628;2023-01-26T16:59:50;102537.47;;;7.90;73.76
24752;BME280;27246;52.376;4.628;2023-01-26T17:04:52;102523.78;;;8.45;73.08
24752;BME280;27246;52.376;4.628;2023-01-26T17:09:54;102532.88;;;8.02;73.61
24752;BME280;27246;52.376;4.628;2023-01-26T17:14:56;102527.25;;;8.47;72.71
24752;BME280;27246;52.376;4.628;2023-01-26T17:20:01;102521.94;;;8.46;73.01
24752;BME280;27246;52.376;4.628;2023-01-26T17:25:18;102527.09;;;8.28;73.95
24752;BME280;27246;52.376;4.628;2023-01-26T17:30:20;102533.75;;;8.57;72.30
24752;BME280;27246;52.376;4.628;2023-01-26T17:35:22;102523.50;;;8.05;71.87
24752;BME280;27246;52.376;4.628;2023-01-26T17:40:24;102529.88;;;8.81;71.90
24752;BME280;27246;52.376;4.628;2023-01-26T17:45:26;102528.59;;;8.64;71.82
24752;BME280;27246;52.376;4.628;2023-01-26T17:50:28;102530.25;;;8.55;72.48
24752;BME280;27246;52.376;4.628;2023-01-26T17:55:31;102528.31;;;9.41;72.33
24752;BME280;27246;52.376;4.628;2023-01-26T18:00:32;102533.34;;;8.94;70.97
24752;BME280;27246;52.376;4.628;2023-01-26T18:05:34;102531.78;;;8.48;71.33
24752;BME280;27246;52.376;4.628;2023-01-26T18:10:36;102535.38;;;8.81;70.86
24752;BME280;27246;52.376;4.628;2023-01-26T18:15:38;102525.56;;;8.67;72.11
24752;BME280;27246;52.376;4.628;2023-01-26T18:20:39;102542.31;;;8.32;71.04
24752;BME280;27246;52.376;4.628;2023-01-26T18:25:41;102534.03;;;8.43;72.47
24752;BME280;27246;52.376;4.628;2023-01-26T18:30:44;102538.34;;;8.13;71.70
24752;BME280;27246;52.376;4.628;2023-01-26T18:35:46;102537.34;;;7.80;71.94
24752;BME280;27246;52.376;4.628;2023-01-26T18:40:48;102533.88;;;7.90;71.46
24752;BME280;27246;52.376;4.628;2023-01-26T18:45:49;102535.44;;;8.15;71.98
24752;BME280;27246;52.376;4.628;2023-01-26T18:50:51;102536.09;;;7.85;71.35
24752;BME280;27246;52.376;4.628;2023-01-26T18:56:02;102551.75;;;8.50;72.20
24752;BME280;27246;52.376;4.628;2023-01-26T19:01:11;102546.94;;;8.20;71.02
24752;BME280;27246;52.376;4.628;2023-01-26T19:06:15;102552.16;;;8.34;70.97
24752;BME280;27246;52.376;4.628;2023-01-26T19:11:18;102548.47;;;7.90;70.30
24752;BME280;27246;52.376;4.628;2023-01-26T19:16:20;102541.19;;;8.67;72.68
24752;BME280;27246;52.376;4.628;2023-01-26T19:21:24;102548.97;;;8.61;71.90
24752;BME280;27246;52.376;4.628;2023-01-26T19:26:27;102538.84;;;8.07;71.66
24752;BME280;27246;52.376;4.628;2023-01-26T19:31:30;102549.16;;;8.26;72.79
24752;BME280;27246;52.376;4.628;2023-01-26T19:36:34;102551.84;;;8.05;72.77
24752;BME280;27246;52.376;4.628;2023-01-26T19:41:36;102548.16;;;8.38;72.51
24752;BME280;27246;52.376;4.628;2023-01-26T19:46:39;102549.72;;;7.97;72.44
24752;BME280;27246;52.376;4.628;2023-01-26T19:51:41;102548.38;;;8.47;72.33
24752;BME280;27246;52.376;4.628;2023-01-26T19:56:43;102553.28;;;8.20;72.12
24752;BME280;27246;52.376;4.628;2023-01-26T20:01:44;102551.69;;;8.18;73.24
24752;BME280;27246;52.376;4.628;2023-01-26T20:06:47;102552.03;;;8.36;73.68
24752;BME280;27246;52.376;4.628;2023-01-26T20:11:49;102543.88;;;7.91;72.98
24752;BME280;27246;52.376;4.628;2023-01-26T20:16:50;102544.34;;;7.73;72.63
24752;BME280;27246;52.376;4.628;2023-01-26T20:21:53;102547.22;;;7.60;73.36
24752;BME280;27246;52.376;4.628;2023-01-26T20:26:55;102551.09;;;7.69;73.20
24752;BME280;27246;52.376;4.628;2023-01-26T20:31:57;102538.75;;;7.75;73.38
24752;BME280;27246;52.376;4.628;2023-01-26T20:36:59;102542.38;;;7.75;72.55
24752;BME280;27246;52.376;4.628;2023-01-26T20:42:00;102543.59;;;7.49;73.51
24752;BME280;27246;52.376;4.628;2023-01-26T20:47:02;102539.25;;;7.69;73.47
24752;BME280;27246;52.376;4.628;2023-01-26T20:52:04;102536.94;;;7.40;73.91
24752;BME280;27246;52.376;4.628;2023-01-26T20:57:08;102533.13;;;7.65;73.95
24752;BME280;27246;52.376;4.628;2023-01-26T21:02:11;102530.88;;;7.59;74.16
24752;BME280;27246;52.376;4.628;2023-01-26T21:07:13;102547.09;;;7.85;75.05
24752;BME280;27246;52.376;4.628;2023-01-26T21:12:15;102539.47;;;7.66;74.55
24752;BME280;27246;52.376;4.628;2023-01-26T21:17:17;102542.09;;;7.45;75.16
24752;BME280;27246;52.376;4.628;2023-01-26T21:22:22;102547.84;;;7.53;75.30
24752;BME280;27246;52.376;4.628;2023-01-26T21:27:24;102536.25;;;7.60;75.84
24752;BME280;27246;52.376;4.628;2023-01-26T21:32:26;102539.06;;;7.36;76.86
24752;BME280;27246;52.376;4.628;2023-01-26T21:37:28;102538.50;;;7.20;76.98
24752;BME280;27246;52.376;4.628;2023-01-26T21:42:29;102545.78;;;7.32;76.91
24752;BME280;27246;52.376;4.628;2023-01-26T21:47:31;102526.53;;;7.10;77.88
24752;BME280;27246;52.376;4.628;2023-01-26T21:52:32;102534.75;;;7.10;77.81
24752;BME280;27246;52.376;4.628;2023-01-26T21:57:53;102533.88;;;6.98;78.33
24752;BME280;27246;52.376;4.628;2023-01-26T22:03:13;102535.97;;;7.41;78.08
24752;BME280;27246;52.376;4.628;2023-01-26T22:08:15;102541.72;;;7.14;77.93
24752;BME280;27246;52.376;4.628;2023-01-26T22:13:17;102542.78;;;6.89;78.82
24752;BME280;27246;52.376;4.628;2023-01-26T22:18:18;102550.63;;;6.93;79.03
24752;BME280;27246;52.376;4.628;2023-01-26T22:23:20;102533.44;;;6.91;80.04
24752;BME280;27246;52.376;4.628;2023-01-26T22:28:22;102529.97;;;6.89;80.05
24752;BME280;27246;52.376;4.628;2023-01-26T22:33:24;102535.97;;;6.94;80.11
24752;BME280;27246;52.376;4.628;2023-01-26T22:38:26;102527.59;;;6.85;80.68
24752;BME280;27246;52.376;4.628;2023-01-26T22:43:29;102535.44;;;6.89;80.54
24752;BME280;27246;52.376;4.628;2023-01-26T22:48:32;102536.47;;;6.99;80.63
24752;BME280;27246;52.376;4.628;2023-01-26T22:53:34;102550.03;;;7.36;80.27
24752;BME280;27246;52.376;4.628;2023-01-26T22:58:37;102538.38;;;7.10;80.06
24752;BME280;27246;52.376;4.628;2023-01-26T23:03:56;102534.00;;;7.08;80.67
24752;BME280;27246;52.376;4.628;2023-01-26T23:08:59;102536.88;;;7.06;80.91
24752;BME280;27246;52.376;4.628;2023-01-26T23:14:02;102541.19;;;6.97;81.33
24752;BME280;27246;52.376;4.628;2023-01-26T23:19:04;102544.56;;;6.90;81.79
24752;BME280;27246;52.376;4.628;2023-01-26T23:24:06;102532.63;;;7.02;81.29
24752;BME280;27246;52.376;4.628;2023-01-26T23:29:08;102532.50;;;7.04;80.86
24752;BME280;27246;52.376;4.628;2023-01-26T23:34:10;102523.28;;;7.63;80.11
24752;BME280;27246;52.376;4.628;2023-01-26T23:39:11;102516.41;;;7.68;79.06
24752;BME280;27246;52.376;4.628;2023-01-26T23:44:13;102514.19;;;7.51;79.17
24752;BME280;27246;52.376;4.628;2023-01-26T23:49:15;102511.19;;;7.65;79.47
24752;BME280;27246;52.376;4.628;2023-01-26T23:54:21;102501.19;;;7.30;79.75
24752;BME280;27246;52.376;4.628;2023-01-26T23:59:24;102509.19;;;7.67;78.43
